Terminal Aerodrome Forecast
Issued by NWS North Platte, NE

Home | Current Version | Previous Version | Graphics & Text | Print | Product List | Glossary On
Versions: 1 2 3 4 5 6 7 8 9 10 11 12 13 14 15
697
FTUS43 KLBF 052026 AAB
TAFVTN
TAF AMD
KVTN 052026Z 0520/0618 31018G25KT P6SM VCSH BKN018 OVC040
      TEMPO 0520/0522 1 1/2SM -SHSN OVC015
     FM052300 31016G24KT P6SM BKN040
     FM060300 31016KT P6SM SCT110=

USA.gov is the U.S. government's official web portal to all federal, state and local government web resources and services.